Time;durP1;ratioP1;P1;durP2;ratioP2;P2;SDS_P1;SDS_P2;PMS_P1;PMS_P2;Temp;Humidity;BMP_temperature;BMP_pressure;BME280_temperature;BME280_humidity;BME280_pressure;Samples;Min_cycle;Max_cycle;Signal;HPM_P1;HPM_P2
2023/05/03 07:01:20;;;;;;;2.73;1.43;;;13.20;99.90;17.30;102606.00;;;;6278129;22;20652;-74
2023/05/03 07:03:51;;;;;;;1.07;0.90;;;13.60;99.90;15.90;102674.00;;;;6277147;22;20169;-74
2023/05/03 07:06:22;;;;;;;3.00;2.77;;;13.80;99.90;16.80;102664.00;;;;6277094;22;20478;-74
2023/05/03 07:08:54;;;;;;;1.27;1.10;;;13.80;99.90;16.70;102667.00;;;;6276591;22;20140;-73
2023/05/03 07:11:24;;;;;;;1.50;1.03;;;14.00;99.90;16.10;102592.00;;;;6277260;22;20211;-74
2023/05/03 07:14:03;;;;;;;2.03;1.30;;;13.90;99.90;17.80;102674.00;;;;6251321;22;20158;-73
2023/05/03 07:16:32;;;;;;;0.73;0.73;;;14.20;99.90;17.70;102691.00;;;;6252187;22;20158;-73
2023/05/03 07:19:00;;;;;;;0.10;0.10;;;14.40;99.90;17.70;102685.00;;;;6276841;22;20480;-73
2023/05/03 07:21:29;;;;;;;0.17;0.17;;;14.60;99.90;20.00;102645.00;;;;6251479;22;20494;-73
2023/05/03 07:23:59;;;;;;;1.30;1.20;;;15.80;99.90;18.40;102765.00;;;;6276906;22;20171;-73
2023/05/03 07:26:31;;;;;;;0.65;0.65;;;15.80;99.90;16.50;102769.00;;;;6276972;22;20149;-74
2023/05/03 07:29:02;;;;;;;0.88;0.88;;;14.80;99.90;17.90;102762.00;;;;6251012;22;20168;-74
2023/05/03 07:31:28;;;;;;;1.55;1.45;;;14.90;99.90;17.80;102753.00;;;;6276930;22;20145;-73
2023/05/03 07:34:00;;;;;;;1.60;1.50;;;15.40;99.90;17.30;102679.00;;;;6251247;22;20222;-74
2023/05/03 07:36:30;;;;;;;0.75;0.63;;;15.00;99.90;17.70;102673.00;;;;6251551;22;20226;-73
2023/05/03 07:39:03;;;;;;;1.77;1.60;;;14.90;99.90;16.10;102654.00;;;;6276776;22;20161;-73
2023/05/03 07:41:41;;;;;;;0.83;0.83;;;14.60;99.90;16.30;102697.00;;;;6252226;22;20153;-73
2023/05/03 07:44:13;;;;;;;5.73;2.67;;;14.20;99.90;18.00;102685.00;;;;6251737;22;20162;-73
2023/05/03 07:46:48;;;;;;;2.33;1.90;;;14.70;99.90;19.20;102649.00;;;;6251597;22;20153;-73
2023/05/03 07:49:17;;;;;;;1.37;0.90;;;15.40;99.90;17.70;102627.00;;;;6251117;22;20162;-73
2023/05/03 07:51:49;;;;;;;1.03;1.03;;;15.10;99.90;18.30;102678.00;;;;6278010;22;20148;-73
2023/05/03 07:54:28;;;;;;;2.40;1.77;;;15.40;99.90;17.80;102668.00;;;;6252329;22;20161;-73
2023/05/03 07:57:03;;;;;;;0.75;0.75;;;15.70;99.90;17.60;102696.00;;;;6276332;22;20136;-73
2023/05/03 07:59:46;;;;;;;1.70;1.60;;;15.30;99.90;15.80;102711.00;;;;6275915;22;20171;-73
2023/05/03 08:02:18;;;;;;;0.57;0.57;;;14.60;99.90;18.90;102671.00;;;;6250997;22;20156;-73
2023/05/03 08:04:50;;;;;;;1.55;1.25;;;15.40;99.90;19.00;102652.00;;;;6275248;22;20577;-73
2023/05/03 08:07:22;;;;;;;0.40;0.40;;;15.80;99.90;19.80;102647.00;;;;6276481;22;20145;-73
2023/05/03 08:09:55;;;;;;;0.20;0.20;;;16.30;99.90;20.00;102648.00;;;;6251300;22;20153;-73
2023/05/03 08:12:30;;;;;;;0.30;0.30;;;16.40;99.90;21.00;102598.00;;;;6276156;22;20565;-73
2023/05/03 08:15:03;;;;;;;1.55;0.70;;;17.20;99.90;21.00;102638.00;;;;6250597;22;20221;-73
2023/05/03 08:17:42;;;;;;;0.20;0.20;;;17.50;99.90;20.70;102626.00;;;;6251399;22;20157;-73
2023/05/03 08:20:35;;;;;;;1.75;1.65;;;17.30;99.90;18.50;102682.00;;;;6250922;22;20149;-73
2023/05/03 08:23:21;;;;;;;1.88;1.52;;;17.10;99.90;19.50;102612.00;;;;6276401;22;20450;-73
2023/05/03 08:25:59;;;;;;;15.00;1.00;;;16.30;99.90;21.30;102667.00;;;;6275857;22;20153;-73
2023/05/03 08:28:29;;;;;;;0.85;0.80;;;17.40;99.90;20.60;102676.00;;;;6275903;22;20239;-73
2023/05/03 08:31:03;;;;;;;0.20;0.20;;;17.50;99.90;21.70;102593.00;;;;6277700;22;20592;-73
2023/05/03 08:33:30;;;;;;;0.57;0.57;;;17.60;99.90;20.20;102685.00;;;;6250699;22;20175;-73
2023/05/03 08:36:04;;;;;;;0.60;0.60;;;17.60;99.90;21.80;102659.00;;;;6250339;22;20156;-72
2023/05/03 08:38:32;;;;;;;5.70;1.70;;;17.90;99.90;21.70;102663.00;;;;6276338;22;20183;-72
2023/05/03 08:41:21;;;;;;;0.40;0.40;;;18.20;99.90;21.40;102682.00;;;;6250600;22;20592;-73
2023/05/03 08:43:55;;;;;;;1.75;1.65;;;18.10;99.90;19.30;102682.00;;;;6250778;22;20161;-73
2023/05/03 08:46:30;;;;;;;0.95;0.60;;;17.60;99.90;18.80;102673.00;;;;6250523;22;20214;-73
2023/05/03 08:49:00;;;;;;;1.30;0.88;;;16.60;99.90;19.40;102684.00;;;;6277131;22;20161;-73
2023/05/03 08:51:32;;;;;;;1.38;1.27;;;16.30;99.90;20.50;102658.00;;;;6250330;22;20215;-72
2023/05/03 08:54:10;;;;;;;0.75;0.70;;;17.00;99.90;21.50;102656.00;;;;6276230;22;20156;-73
2023/05/03 08:56:59;;;;;;;1.55;1.45;;;17.50;99.90;18.80;102658.00;;;;6250768;22;20168;-73
2023/05/03 08:59:33;;;;;;;1.65;1.55;;;17.00;99.90;20.60;102666.00;;;;6266156;22;20177;-73
2023/05/03 09:02:06;;;;;;;0.32;0.32;;;17.40;99.90;20.80;102667.00;;;;6275691;22;20190;-73
2023/05/03 09:04:35;;;;;;;3.75;2.55;;;17.50;99.90;19.60;102665.00;;;;6251280;22;20153;-73
2023/05/03 09:07:11;;;;;;;1.77;1.50;;;16.90;99.90;19.90;102667.00;;;;6250106;22;20210;-73
2023/05/03 09:09:50;;;;;;;1.50;1.45;;;16.90;99.90;20.60;102665.00;;;;6275415;22;20518;-72
2023/05/03 09:12:39;;;;;;;3.75;1.60;;;17.20;99.90;20.20;102681.00;;;;6275511;22;20161;-74
2023/05/03 09:15:29;;;;;;;0.28;0.28;;;17.10;99.90;20.70;102660.00;;;;6250796;22;20611;-73
2023/05/03 09:18:16;;;;;;;1.80;1.70;;;17.30;99.90;20.70;102689.00;;;;6275013;22;20161;-73
2023/05/03 09:20:51;;;;;;;0.65;0.45;;;17.80;99.90;21.40;102660.00;;;;6275884;22;20137;-73
2023/05/03 09:23:34;;;;;;;4.05;1.25;;;17.80;99.90;20.50;102669.00;;;;6251002;22;20599;-73
2023/05/03 09:26:03;;;;;;;0.80;0.80;;;17.40;99.90;20.70;102659.00;;;;6275581;22;20153;-73
2023/05/03 09:28:48;;;;;;;1.48;0.90;;;17.60;99.90;18.80;102690.00;;;;6275561;22;20195;-72
2023/05/03 09:31:19;;;;;;;0.40;0.40;;;17.00;99.90;20.90;102653.00;;;;6275436;22;20581;-73
2023/05/03 09:33:52;;;;;;;1.98;1.25;;;17.30;99.90;21.10;102592.00;;;;6275188;22;20509;-73
2023/05/03 09:36:20;;;;;;;0.63;0.63;;;17.70;99.90;19.90;102670.00;;;;6275652;22;20145;-73
2023/05/03 09:38:47;;;;;;;0.77;0.77;;;17.60;99.90;21.50;102631.00;;;;6275549;22;20183;-73
2023/05/03 09:41:17;;;;;;;1.10;1.02;;;17.50;99.90;21.50;102659.00;;;;6277049;22;20149;-73
2023/05/03 09:43:51;;;;;;;7.88;1.48;;;18.10;99.90;20.60;102655.00;;;;6250452;22;20166;-73
2023/05/03 09:46:18;;;;;;;1.10;1.05;;;17.50;99.90;19.30;102594.00;;;;6250036;22;20163;-73
2023/05/03 09:48:57;;;;;;;3.17;2.15;;;16.80;99.90;17.20;102677.00;;;;6275199;22;20147;-72
2023/05/03 09:51:26;;;;;;;0.40;0.20;;;16.30;99.90;18.80;102666.00;;;;6250424;22;20156;-72
2023/05/03 09:53:58;;;;;;;0.30;0.30;;;15.90;99.90;19.30;102662.00;;;;6249591;22;20206;-73
2023/05/03 09:56:31;;;;;;;0.43;0.43;;;16.30;99.90;21.20;102565.00;;;;6275337;22;20167;-73
2023/05/03 09:59:09;;;;;;;2.88;1.30;;;17.50;99.90;22.30;102600.00;;;;6276967;22;20181;-73
2023/05/03 10:01:38;;;;;;;0.90;0.65;;;18.40;99.90;22.80;102627.00;;;;6280031;22;20145;-73
2023/05/03 10:04:10;;;;;;;0.10;0.10;;;19.10;99.90;22.80;102646.00;;;;6281246;22;20210;-73
2023/05/03 10:06:47;;;;;;;1.73;1.65;;;19.00;99.90;20.50;102664.00;;;;6253995;22;20199;-73
2023/05/03 10:09:38;;;;;;;2.17;1.50;;;18.50;99.90;22.50;102650.00;;;;6255477;22;20179;-73
2023/05/03 10:12:16;;;;;;;1.48;1.38;;;18.90;99.90;22.70;102647.00;;;;6281084;22;20191;-73
2023/05/03 10:14:50;;;;;;;1.20;1.17;;;19.40;99.90;21.80;102551.00;;;;6280749;22;20164;-72
2023/05/03 10:17:30;;;;;;;0.68;0.63;;;19.00;99.90;21.70;102635.00;;;;6254396;22;20166;-73
2023/05/03 10:20:14;;;;;;;0.95;0.73;;;18.80;99.90;22.60;102632.00;;;;6255201;22;20183;-73
2023/05/03 10:33:33;;;;;;;0.32;0.32;;;17.90;99.90;21.00;102647.00;;;;5070802;27;20586;-72
2023/05/03 10:36:14;;;;;;;9.35;2.80;;;17.90;99.90;18.20;102678.00;;;;5069168;28;20275;-72
2023/05/03 10:38:44;;;;;;;0.82;0.82;;;17.40;99.90;21.00;102647.00;;;;5068795;28;20272;-72
2023/05/03 10:41:32;;;;;;;1.40;1.30;;;17.40;99.90;20.20;102615.00;;;;5083422;28;20223;-72
2023/05/03 10:44:06;;;;;;;6.95;2.25;;;17.60;99.90;21.70;102625.00;;;;5068563;28;20205;-71
2023/05/03 10:46:33;;;;;;;0.70;0.60;;;18.30;99.90;21.90;102635.00;;;;5068663;28;20188;-72
2023/05/03 10:49:21;;;;;;;3.20;2.30;;;18.80;99.90;17.60;102653.00;;;;5068678;28;20199;-72
2023/05/03 10:51:52;;;;;;;1.08;0.95;;;17.00;99.90;19.60;102653.00;;;;5068580;28;20270;-72
2023/05/03 10:54:22;;;;;;;0.22;0.22;;;17.10;99.90;21.30;102623.00;;;;5052528;28;20194;-72
2023/05/03 10:56:50;;;;;;;2.42;2.00;;;17.60;99.90;21.10;102635.00;;;;5068475;28;20666;-72
2023/05/03 10:59:23;;;;;;;1.63;1.52;;;18.20;99.90;20.70;102620.00;;;;5068606;28;20178;-72
2023/05/03 11:01:53;;;;;;;2.00;1.88;;;18.10;99.90;19.20;102559.00;;;;5068488;28;20200;-72
2023/05/03 11:04:38;;;;;;;3.20;2.08;;;17.70;99.90;19.50;102640.00;;;;5068425;28;20201;-72
2023/05/03 11:07:08;;;;;;;5.25;3.10;;;17.00;99.90;19.10;102640.00;;;;5065497;28;20182;-72
2023/05/03 11:09:46;;;;;;;0.45;0.45;;;17.40;99.90;21.30;102620.00;;;;5068321;28;20205;-72
2023/05/03 11:12:24;;;;;;;1.33;1.23;;;17.70;99.90;20.20;102618.00;;;;5052016;28;20205;-71
2023/05/03 11:14:50;;;;;;;2.45;1.65;;;18.10;99.90;19.80;102625.00;;;;5061609;28;20190;-71
2023/05/03 11:17:22;;;;;;;4.40;4.03;;;18.10;99.90;19.60;102615.00;;;;5068163;28;20273;-72
2023/05/03 11:19:52;;;;;;;1.90;1.80;;;17.50;99.90;19.70;102558.00;;;;5068089;28;20186;-72
2023/05/03 11:22:21;;;;;;;0.75;0.75;;;17.60;99.90;20.50;102537.00;;;;5068180;28;20197;-73
2023/05/03 11:25:00;;;;;;;0.85;0.82;;;17.00;99.90;22.10;102601.00;;;;5067969;28;20193;-73
2023/05/03 11:27:40;;;;;;;1.75;1.63;;;18.50;99.90;21.20;102597.00;;;;5068020;28;20181;-73
2023/05/03 11:30:13;;;;;;;0.35;0.35;;;18.80;99.90;22.70;102526.00;;;;5067806;28;20181;-72
2023/05/03 11:32:44;;;;;;;2.05;1.33;;;19.30;99.90;20.50;102587.00;;;;5067681;28;20213;-73
2023/05/03 11:35:12;;;;;;;1.25;1.15;;;18.80;99.90;19.00;102603.00;;;;5068356;28;20174;-72
2023/05/03 11:37:42;;;;;;;4.70;2.05;;;17.60;99.90;19.60;102579.00;;;;5051235;28;20205;-73
2023/05/03 11:40:20;;;;;;;2.38;1.85;;;17.30;99.90;21.00;102582.00;;;;5068134;28;20193;-73
2023/05/03 11:43:00;;;;;;;0.57;0.57;;;17.80;99.90;22.60;102570.00;;;;5065446;28;20182;-73
2023/05/03 11:45:46;;;;;;;1.98;1.85;;;18.70;99.90;22.00;102578.00;;;;5044209;28;20660;-73
2023/05/03 11:48:13;;;;;;;1.42;1.33;;;19.20;99.90;21.50;102581.00;;;;5054497;28;20182;-73
2023/05/03 11:50:54;;;;;;;0.22;0.22;;;18.70;99.90;23.20;102537.00;;;;5054221;28;20717;-73
2023/05/03 11:53:22;;;;;;;1.42;1.30;;;19.20;99.90;23.60;102552.00;;;;5047925;28;20182;-73
2023/05/03 11:55:55;;;;;;;0.68;0.68;;;19.50;99.90;21.50;102545.00;;;;5055607;28;20640;-73
2023/05/03 11:58:25;;;;;;;4.55;0.95;;;18.80;99.90;21.70;102542.00;;;;5054169;28;20178;-72
2023/05/03 12:01:06;;;;;;;1.30;1.00;;;18.40;99.90;21.80;102544.00;;;;5054019;28;20256;-72
2023/05/03 12:03:40;;;;;;;2.17;1.48;;;18.40;99.90;21.70;102479.00;;;;5054603;28;20198;-73
2023/05/03 12:06:10;;;;;;;9.32;2.50;;;18.10;99.90;20.30;102547.00;;;;5052818;28;20235;-73
2023/05/03 12:08:39;;;;;;;1.40;1.10;;;17.80;99.90;19.40;102519.00;;;;5054256;28;20235;-72
2023/05/03 12:11:09;;;;;;;1.87;1.73;;;17.20;99.90;20.00;102535.00;;;;5059295;28;20182;-73
2023/05/03 12:13:44;;;;;;;2.27;1.57;;;17.20;99.90;20.50;102484.00;;;;5053700;28;20186;-72
2023/05/03 12:16:17;;;;;;;1.60;1.50;;;17.40;99.90;20.00;102524.00;;;;5054201;28;20238;-73
2023/05/03 12:19:01;;;;;;;1.03;0.80;;;17.40;99.90;20.70;102514.00;;;;5037991;28;20680;-73
2023/05/03 12:21:47;;;;;;;2.47;2.17;;;17.30;99.90;20.50;102479.00;;;;5054920;28;20270;-73
2023/05/03 12:24:16;;;;;;;3.60;2.67;;;17.50;99.90;19.30;102540.00;;;;5070606;28;20709;-72
2023/05/03 12:26:54;;;;;;;4.30;2.00;;;17.20;99.90;20.00;102526.00;;;;5053322;28;20635;-72
2023/05/03 12:29:26;;;;;;;1.00;1.00;;;17.40;99.90;21.10;102447.00;;;;5038025;28;20259;-72
2023/05/03 12:31:52;;;;;;;2.37;1.20;;;17.70;99.90;20.20;102518.00;;;;5053593;28;20221;-73
2023/05/03 12:34:26;;;;;;;0.53;0.53;;;17.50;99.90;21.40;102486.00;;;;5053555;28;20189;-73
2023/05/03 12:37:01;;;;;;;1.57;0.90;;;17.60;99.90;21.10;102428.00;;;;5053609;28;20268;-73
2023/05/03 12:39:30;;;;;;;5.97;2.70;;;17.60;99.90;21.00;102499.00;;;;5051460;28;20355;-74
2023/05/03 12:41:57;;;;;;;0.50;0.50;;;17.80;99.90;21.10;102478.00;;;;5054280;28;20646;-72
2023/05/03 12:44:25;;;;;;;1.33;0.63;;;17.70;99.90;21.00;102488.00;;;;5055171;28;20192;-72
2023/05/03 12:46:57;;;;;;;0.93;0.93;;;17.70;99.90;19.80;102501.00;;;;5053344;28;20608;-72
2023/05/03 12:49:34;;;;;;;3.87;2.40;;;17.20;99.90;20.00;102485.00;;;;5053479;28;20644;-72
2023/05/03 12:52:00;;;;;;;3.67;2.97;;;17.30;99.90;19.30;102489.00;;;;5053426;28;20211;-72
2023/05/03 12:54:26;;;;;;;2.00;1.80;;;17.30;99.90;19.70;102494.00;;;;5035815;28;20262;-72
2023/05/03 12:57:02;;;;;;;1.13;1.07;;;16.90;99.90;20.70;102480.00;;;;5052570;28;20194;-72
2023/05/03 12:59:35;;;;;;;1.80;1.70;;;17.30;99.90;21.30;102488.00;;;;5053360;28;20189;-73
2023/05/03 13:02:01;;;;;;;1.10;0.93;;;17.70;99.90;20.00;102429.00;;;;5053160;28;20280;-73
2023/05/03 13:04:31;;;;;;;0.70;0.70;;;17.70;99.90;20.70;102472.00;;;;5054623;28;20199;-72
2023/05/03 13:07:03;;;;;;;2.10;1.47;;;17.70;99.90;20.20;102485.00;;;;5053028;28;20277;-72
2023/05/03 13:09:35;;;;;;;1.23;1.13;;;17.60;99.90;20.60;102435.00;;;;5052885;28;20520;-72
2023/05/03 13:12:01;;;;;;;1.23;1.20;;;17.60;99.90;20.00;102429.00;;;;5053090;28;20275;-71
2023/05/03 13:14:42;;;;;;;1.53;1.43;;;17.50;99.90;20.60;102445.00;;;;5053091;28;20185;-72
2023/05/03 13:17:14;;;;;;;4.77;2.50;;;17.60;99.90;20.20;102460.00;;;;5052730;28;20189;-72
2023/05/03 13:19:56;;;;;;;3.50;2.03;;;17.70;99.90;20.90;102459.00;;;;5051458;28;20190;-72
2023/05/03 13:22:27;;;;;;;0.67;0.67;;;17.80;99.90;20.80;102434.00;;;;5052689;28;20218;-72
2023/05/03 13:24:56;;;;;;;4.53;2.08;;;17.80;99.90;21.40;102407.00;;;;5053943;28;20193;-72
2023/05/03 13:27:25;;;;;;;8.80;1.30;;;18.00;99.90;21.20;102440.00;;;;5052805;28;20182;-73
2023/05/03 13:29:51;;;;;;;1.25;1.15;;;18.20;99.90;21.40;102430.00;;;;5052638;28;20174;-73
2023/05/03 13:32:26;;;;;;;0.20;0.20;;;18.20;99.90;20.90;102416.00;;;;5053724;28;20220;-73
2023/05/03 13:34:57;;;;;;;1.40;1.30;;;18.10;99.90;21.00;102376.00;;;;5052429;28;20188;-73
2023/05/03 13:37:29;;;;;;;1.30;1.15;;;18.10;99.90;21.60;102404.00;;;;5044535;28;20204;-73
2023/05/03 13:39:58;;;;;;;0.75;0.75;;;18.20;99.90;21.50;102407.00;;;;5052136;28;20271;-73
2023/05/03 13:42:33;;;;;;;1.70;1.37;;;18.30;99.90;19.70;102428.00;;;;5052430;28;20197;-73
2023/05/03 13:45:00;;;;;;;0.30;0.30;;;17.70;99.90;19.80;102439.00;;;;5052087;28;20188;-73
2023/05/03 13:47:32;;;;;;;0.90;0.70;;;17.20;99.90;21.70;102406.00;;;;5052457;28;20223;-73
2023/05/03 13:50:06;;;;;;;1.27;0.63;;;17.80;99.90;21.10;102347.00;;;;5052339;28;20186;-73
2023/05/03 13:52:35;;;;;;;2.13;0.67;;;18.10;99.90;19.90;102436.00;;;;5052886;28;20757;-73
2023/05/03 13:55:07;;;;;;;3.03;1.50;;;17.50;99.90;19.70;102424.00;;;;5052025;28;20180;-73
2023/05/03 13:57:33;;;;;;;2.57;1.97;;;17.50;99.90;20.60;102386.00;;;;5051708;28;20185;-73
2023/05/03 14:00:05;;;;;;;3.00;1.70;;;17.70;99.90;20.60;102390.00;;;;5052517;28;20188;-73
2023/05/03 14:02:39;;;;;;;1.97;1.53;;;17.80;99.90;21.20;102377.00;;;;5052273;28;20201;-73
2023/05/03 14:05:09;;;;;;;1.83;1.47;;;17.70;99.90;20.60;102385.00;;;;5052257;28;20189;-73
2023/05/03 14:07:36;;;;;;;19.07;2.83;;;17.90;99.90;21.00;102402.00;;;;5051523;28;20196;-73
2023/05/03 14:10:09;;;;;;;1.70;1.50;;;17.70;99.90;20.30;102382.00;;;;5050151;28;20220;-73
2023/05/03 14:12:38;;;;;;;0.90;0.77;;;17.80;99.90;21.60;102371.00;;;;5051523;28;20203;-74
2023/05/03 14:15:05;;;;;;;2.67;1.93;;;18.00;99.90;20.60;102396.00;;;;5051903;28;20272;-73
2023/05/03 14:17:38;;;;;;;2.90;2.60;;;18.00;99.90;20.90;102364.00;;;;5035082;28;20284;-73
2023/05/03 14:20:09;;;;;;;0.67;0.67;;;18.00;99.90;21.60;102355.00;;;;5048573;28;20216;-73
2023/05/03 14:22:48;;;;;;;0.87;0.87;;;18.10;99.90;21.20;102359.00;;;;5051192;28;20216;-73
2023/05/03 14:25:22;;;;;;;10.53;0.73;;;18.10;99.90;21.20;102353.00;;;;5051606;28;20619;-73
2023/05/03 14:27:48;;;;;;;2.47;2.37;;;17.90;99.90;21.60;102312.00;;;;5051927;28;20185;-73
2023/05/03 14:30:17;;;;;;;0.87;0.87;;;18.00;99.90;21.70;102360.00;;;;5051859;28;20201;-73
2023/05/03 14:32:55;;;;;;;1.30;1.20;;;18.20;99.90;20.70;102359.00;;;;5051280;28;20301;-73
2023/05/03 14:35:27;;;;;;;2.03;0.97;;;18.10;99.90;20.00;102362.00;;;;5051622;28;20260;-73
2023/05/03 14:38:07;;;;;;;0.97;0.93;;;17.80;99.90;21.40;102338.00;;;;5052461;28;20199;-73
2023/05/03 14:40:34;;;;;;;1.80;1.67;;;17.90;99.90;21.30;102341.00;;;;5035681;28;20192;-73
2023/05/03 14:43:00;;;;;;;2.03;1.90;;;17.90;99.90;21.50;102325.00;;;;5051431;28;20223;-73
2023/05/03 14:45:35;;;;;;;0.53;0.50;;;18.10;99.90;20.90;102346.00;;;;5051552;28;20567;-73
2023/05/03 14:48:13;;;;;;;2.23;2.03;;;17.90;99.90;20.30;102319.00;;;;5051898;28;20179;-73
2023/05/03 14:50:51;;;;;;;0.37;0.37;;;17.90;99.90;21.50;102306.00;;;;5051622;28;20191;-73
2023/05/03 14:53:29;;;;;;;0.63;0.53;;;17.90;99.90;20.50;102335.00;;;;5051423;28;20686;-73
2023/05/03 14:56:04;;;;;;;0.83;0.83;;;17.90;99.90;21.50;102326.00;;;;5031623;28;20236;-73
2023/05/03 14:58:34;;;;;;;4.60;3.07;;;18.00;99.90;19.80;102334.00;;;;5047143;28;20189;-73
2023/05/03 15:01:02;;;;;;;1.33;0.60;;;17.90;99.90;21.40;102316.00;;;;5052394;28;20178;-73
2023/05/03 15:03:34;;;;;;;0.80;0.80;;;18.10;99.90;22.10;102309.00;;;;5052646;28;20199;-73
2023/05/03 15:06:00;;;;;;;0.30;0.30;;;18.30;99.90;21.90;102302.00;;;;5053678;28;20182;-73
2023/05/03 15:08:50;;;;;;;2.72;2.30;;;18.30;99.90;21.00;102310.00;;;;5052558;28;20240;-73
2023/05/03 15:11:18;;;;;;;1.95;1.85;;;18.10;99.90;20.80;102324.00;;;;5042584;28;20599;-71
2023/05/03 15:13:45;;;;;;;0.10;0.10;;;18.00;99.90;21.40;102254.00;;;;5051666;28;20650;-73
2023/05/03 15:16:19;;;;;;;2.45;2.25;;;18.00;99.90;20.50;102323.00;;;;5052955;28;20547;-73
2023/05/03 15:19:14;;;;;;;0.70;0.63;;;18.00;99.90;20.60;102317.00;;;;5052861;28;20536;-73
2023/05/03 15:21:53;;;;;;;2.07;1.80;;;18.00;99.90;20.50;102308.00;;;;5037057;28;20185;-73
2023/05/03 15:24:21;;;;;;;6.93;2.83;;;17.70;99.90;19.90;102324.00;;;;5055049;28;20193;-73
2023/05/03 15:26:52;;;;;;;3.73;1.93;;;17.80;99.90;19.30;102336.00;;;;5055043;28;20193;-73
2023/05/03 15:29:21;;;;;;;0.90;0.90;;;17.30;99.90;20.90;102288.00;;;;5038271;28;20180;-73
2023/05/03 15:32:00;;;;;;;2.43;1.63;;;17.60;99.90;21.70;102283.00;;;;5054711;28;20240;-73
2023/05/03 15:34:36;;;;;;;2.20;1.63;;;18.00;99.90;21.40;102294.00;;;;5049303;28;20216;-73
2023/05/03 15:37:16;;;;;;;3.03;1.77;;;18.30;99.90;21.00;102309.00;;;;5033635;28;20181;-73
2023/05/03 15:39:51;;;;;;;3.43;2.60;;;18.00;99.90;20.20;102295.00;;;;5054582;28;20188;-73
2023/05/03 15:42:20;;;;;;;0.20;0.20;;;17.80;99.90;21.20;102273.00;;;;5053526;28;20212;-73
2023/05/03 15:45:07;;;;;;;1.13;1.03;;;17.70;99.90;21.50;102281.00;;;;5055499;28;20272;-73
2023/05/03 15:47:46;;;;;;;0.60;0.60;;;18.00;99.90;22.00;102268.00;;;;5054709;28;20191;-73
2023/05/03 15:50:28;;;;;;;2.77;2.57;;;18.30;99.90;20.40;102281.00;;;;5038232;28;20280;-73
2023/05/03 15:53:09;;;;;;;2.10;1.70;;;17.90;99.90;19.60;102264.00;;;;5055980;28;20336;-73
2023/05/03 15:55:47;;;;;;;3.50;1.60;;;17.70;99.90;21.40;102277.00;;;;5054808;28;20192;-73
2023/05/03 15:58:18;;;;;;;1.87;1.50;;;17.80;99.90;21.60;102269.00;;;;5054703;28;20275;-73
2023/05/03 16:00:51;;;;;;;2.30;1.50;;;18.10;99.90;21.20;102255.00;;;;5054324;28;20197;-72
2023/05/03 16:03:27;;;;;;;2.13;1.77;;;18.30;99.90;21.10;102273.00;;;;5054197;28;20202;-73
2023/05/03 16:05:59;;;;;;;1.77;1.67;;;18.30;99.90;20.90;102270.00;;;;5070232;28;20257;-73
2023/05/03 16:08:34;;;;;;;0.47;0.47;;;17.90;99.90;21.50;102255.00;;;;5054454;28;20196;-73
2023/05/03 16:11:03;;;;;;;0.73;0.40;;;18.00;99.90;21.00;102261.00;;;;5055149;28;20188;-73
2023/05/03 16:13:37;;;;;;;2.83;1.10;;;17.90;99.90;21.20;102268.00;;;;5048145;28;20220;-73
2023/05/03 16:16:15;;;;;;;2.17;1.63;;;17.90;99.90;21.60;102259.00;;;;5041591;28;20186;-72
2023/05/03 16:18:52;;;;;;;1.57;1.47;;;18.20;99.90;21.10;102258.00;;;;5054227;28;20617;-73
2023/05/03 16:21:24;;;;;;;0.40;0.40;;;18.20;99.90;21.30;102247.00;;;;5053723;28;20656;-73
2023/05/03 16:23:59;;;;;;;3.50;1.13;;;18.10;99.90;20.50;102259.00;;;;5053998;28;20193;-73
2023/05/03 16:26:33;;;;;;;6.20;5.53;;;18.10;99.90;20.40;102265.00;;;;5053579;28;20721;-73
2023/05/03 16:29:22;;;;;;;2.67;1.57;;;17.90;99.90;20.30;102204.00;;;;5054010;28;20188;-73
2023/05/03 16:31:53;;;;;;;0.73;0.73;;;17.60;99.90;21.20;102262.00;;;;5050448;28;20347;-73
2023/05/03 16:34:29;;;;;;;1.67;1.23;;;17.80;99.90;21.60;102270.00;;;;5053653;28;20189;-73
2023/05/03 16:37:01;;;;;;;1.17;1.07;;;18.20;99.90;20.40;102261.00;;;;5054730;28;20199;-73
2023/05/03 16:39:40;;;;;;;2.00;1.43;;;17.90;99.90;20.50;102265.00;;;;5070653;28;20529;-73
2023/05/03 16:42:11;;;;;;;1.40;1.07;;;17.80;99.90;21.10;102260.00;;;;5054052;28;20185;-73
2023/05/03 16:44:43;;;;;;;1.00;0.93;;;17.70;99.90;20.60;102271.00;;;;5054830;28;20196;-73
2023/05/03 16:47:15;;;;;;;0.70;0.70;;;17.80;99.90;21.20;102257.00;;;;5046225;28;20192;-73
2023/05/03 16:49:50;;;;;;;0.73;0.73;;;17.90;99.90;22.50;102221.00;;;;5047859;28;20275;-73
2023/05/03 16:52:21;;;;;;;1.40;0.93;;;18.40;99.90;21.40;102252.00;;;;5053063;28;20208;-73
2023/05/03 16:54:54;;;;;;;0.30;0.30;;;18.20;99.90;21.70;102249.00;;;;5053242;28;20553;-73
2023/05/03 16:57:20;;;;;;;1.80;1.70;;;18.10;99.90;20.30;102254.00;;;;5069617;28;20181;-73
2023/05/03 16:59:48;;;;;;;2.00;1.47;;;17.80;99.90;21.40;102254.00;;;;5053177;28;20184;-73
2023/05/03 17:02:20;;;;;;;4.67;3.63;;;18.00;99.90;20.80;102244.00;;;;5054037;28;20200;-73
2023/05/03 17:04:49;;;;;;;0.63;0.63;;;17.90;99.90;21.20;102193.00;;;;5043735;28;20196;-73
2023/05/03 17:07:23;;;;;;;0.50;0.50;;;17.80;99.90;21.70;102267.00;;;;5067820;28;20189;-73
2023/05/03 17:09:57;;;;;;;5.83;2.37;;;18.00;99.90;20.80;102251.00;;;;5053088;28;20196;-72
2023/05/03 17:12:27;;;;;;;4.13;2.13;;;18.00;99.90;20.70;102242.00;;;;5052765;28;20244;-73
2023/05/03 17:14:54;;;;;;;0.93;0.93;;;17.90;99.90;20.70;102249.00;;;;5053029;28;20184;-73
2023/05/03 17:17:23;;;;;;;3.40;1.07;;;17.60;99.90;21.50;102192.00;;;;5052464;28;20190;-73
2023/05/03 17:19:57;;;;;;;3.00;0.73;;;17.80;99.90;21.20;102240.00;;;;5069643;28;20180;-73
2023/05/03 17:22:25;;;;;;;2.10;1.40;;;17.80;99.90;20.20;102260.00;;;;5052201;28;20650;-73
2023/05/03 17:25:01;;;;;;;1.20;1.10;;;17.60;99.90;20.50;102256.00;;;;5053217;28;20229;-73
2023/05/03 17:27:28;;;;;;;0.83;0.83;;;17.60;99.90;20.70;102239.00;;;;5053363;28;20184;-74
2023/05/03 17:29:57;;;;;;;0.50;0.50;;;17.50;99.90;21.40;102237.00;;;;5052823;28;20262;-73
2023/05/03 17:32:29;;;;;;;1.57;1.23;;;17.70;99.90;20.30;102227.00;;;;5052252;28;20226;-73
2023/05/03 17:34:58;;;;;;;8.23;6.73;;;17.70;99.90;20.20;102245.00;;;;5052606;28;20194;-73
2023/05/03 17:37:27;;;;;;;0.30;0.30;;;17.40;99.90;20.70;102245.00;;;;5052385;28;20188;-73
2023/05/03 17:40:05;;;;;;;0.87;0.87;;;17.30;99.90;20.80;102233.00;;;;5036500;28;20192;-73
2023/05/03 17:42:34;;;;;;;1.53;1.43;;;17.40;99.90;21.20;102205.00;;;;5052691;28;20279;-73
2023/05/03 17:45:04;;;;;;;0.10;0.10;;;17.60;99.90;21.00;102240.00;;;;5052548;28;20606;-73
2023/05/03 17:47:30;;;;;;;4.33;0.83;;;17.50;99.90;20.70;102246.00;;;;5053317;28;20268;-73
2023/05/03 17:49:59;;;;;;;0.20;0.20;;;17.50;99.90;20.80;102232.00;;;;5052407;28;20187;-73
2023/05/03 17:52:35;;;;;;;1.07;0.83;;;17.40;99.90;21.20;102233.00;;;;5035385;28;20608;-73
2023/05/03 17:55:07;;;;;;;1.67;1.57;;;17.60;99.90;20.60;102244.00;;;;5038949;28;20196;-73
2023/05/03 17:57:33;;;;;;;2.17;1.67;;;17.50;99.90;20.50;102254.00;;;;5043948;28;20546;-73
2023/05/03 18:00:20;;;;;;;1.03;1.00;;;17.40;99.90;20.50;102244.00;;;;5052212;28;20183;-73
2023/05/03 18:02:48;;;;;;;0.30;0.30;;;17.40;99.90;20.70;102232.00;;;;5047965;28;20205;-73
2023/05/03 18:05:17;;;;;;;1.00;1.00;;;17.20;99.90;20.80;102236.00;;;;5051971;28;20196;-73
2023/05/03 18:07:43;;;;;;;1.23;1.03;;;17.40;99.90;20.70;102261.00;;;;5052478;28;20192;-73
2023/05/03 18:10:16;;;;;;;0.70;0.70;;;17.40;99.90;20.60;102253.00;;;;5052289;28;20263;-73
2023/05/03 18:12:45;;;;;;;0.40;0.40;;;17.40;99.90;20.50;102205.00;;;;5068680;28;20210;-73
2023/05/03 18:15:13;;;;;;;0.37;0.37;;;17.20;99.90;21.50;102191.00;;;;5051717;28;20181;-73
2023/05/03 18:17:45;;;;;;;1.00;0.93;;;17.50;99.90;20.70;102251.00;;;;5051603;28;20194;-72
2023/05/03 18:20:17;;;;;;;3.57;1.47;;;17.40;99.90;20.50;102245.00;;;;5052483;28;20226;-73
2023/05/03 18:22:43;;;;;;;0.40;0.40;;;17.30;99.90;21.30;102247.00;;;;5052041;28;20227;-73
2023/05/03 18:25:12;;;;;;;0.50;0.50;;;17.30;99.90;20.90;102239.00;;;;5051738;28;20219;-73